createdAt,value
2022-09-28T00:02:11.147Z,4.80
2022-09-28T00:04:40.344Z,6.10
2022-09-28T00:07:08.182Z,4.00
2022-09-28T00:09:37.052Z,4.93
2022-09-28T00:12:04.822Z,5.33
2022-09-28T00:14:33.251Z,4.90
2022-09-28T00:17:00.731Z,5.37
2022-09-28T00:19:28.350Z,5.10
2022-09-28T00:21:55.818Z,5.70
2022-09-28T00:24:27.571Z,4.77
2022-09-28T00:26:58.080Z,4.70
2022-09-28T00:29:28.663Z,5.30
2022-09-28T00:32:00.005Z,5.00
2022-09-28T00:34:28.558Z,4.60
2022-09-28T00:36:56.050Z,4.63
2022-09-28T00:39:27.012Z,4.70
2022-09-28T00:41:55.164Z,4.03
2022-09-28T00:44:47.260Z,4.63
2022-09-28T00:47:19.689Z,4.40
2022-09-28T00:49:49.565Z,4.20
2022-09-28T00:52:20.076Z,4.63
2022-09-28T00:54:48.993Z,4.50
2022-09-28T00:57:17.177Z,4.77
2022-09-28T00:59:45.096Z,4.70
2022-09-28T01:02:12.746Z,4.30
2022-09-28T01:04:41.833Z,4.50
2022-09-28T01:07:10.124Z,4.27
2022-09-28T01:09:39.017Z,3.93
2022-09-28T01:12:06.847Z,4.80
2022-09-28T01:14:34.517Z,4.80
2022-09-28T01:17:07.914Z,4.30
2022-09-28T01:20:05.492Z,4.37
2022-09-28T01:22:45.419Z,3.90
2022-09-28T01:25:14.442Z,4.07
2022-09-28T01:27:45.614Z,4.10
2022-09-28T01:30:15.544Z,3.67
2022-09-28T01:32:48.579Z,4.00
2022-09-28T01:35:18.272Z,4.10
2022-09-28T01:37:48.321Z,4.10
2022-09-28T01:40:16.713Z,4.00
2022-09-28T01:42:47.947Z,4.07
2022-09-28T01:45:17.901Z,4.40
2022-09-28T01:47:48.018Z,4.93
2022-09-28T01:50:17.939Z,4.57
2022-09-28T01:52:48.917Z,4.70
2022-09-28T01:55:19.505Z,5.10
2022-09-28T01:57:50.130Z,5.20
2022-09-28T02:00:19.022Z,4.30
2022-09-28T02:02:54.006Z,5.10
2022-09-28T02:05:29.210Z,4.60
2022-09-28T02:07:59.833Z,4.43
2022-09-28T02:10:30.131Z,5.10
2022-09-28T02:13:04.750Z,5.73
2022-09-28T02:15:36.151Z,5.80
2022-09-28T02:18:04.395Z,5.90
2022-09-28T02:20:33.162Z,5.80
2022-09-28T02:23:02.929Z,5.43
2022-09-28T02:25:35.748Z,5.90
2022-09-28T02:28:05.684Z,5.70
2022-09-28T02:30:53.172Z,6.17
2022-09-28T02:33:22.678Z,6.23
2022-09-28T02:35:50.621Z,6.30
2022-09-28T02:38:20.080Z,6.00
2022-09-28T02:40:57.419Z,6.67
2022-09-28T02:43:28.995Z,5.70
2022-09-28T02:46:02.698Z,6.87
2022-09-28T02:48:55.734Z,5.53
2022-09-28T02:51:38.438Z,6.53
2022-09-28T02:54:18.960Z,6.40
2022-09-28T02:56:56.027Z,5.97
2022-09-28T02:59:33.388Z,6.20
2022-09-28T03:02:04.123Z,6.77
2022-09-28T03:04:36.683Z,6.60
2022-09-28T03:07:13.101Z,6.67
2022-09-28T03:09:43.900Z,6.30
2022-09-28T03:12:13.276Z,6.67
2022-09-28T03:14:42.489Z,7.10
2022-09-28T03:17:10.221Z,7.00
2022-09-28T03:19:38.470Z,7.77
2022-09-28T03:22:06.145Z,7.00
2022-09-28T03:24:34.065Z,7.50
2022-09-28T03:27:02.905Z,7.30
2022-09-28T03:29:33.010Z,8.40
2022-09-28T03:32:05.964Z,7.83
2022-09-28T03:34:33.442Z,7.00
2022-09-28T03:37:00.896Z,7.20
2022-09-28T03:39:28.858Z,7.10
2022-09-28T03:41:56.426Z,7.30
2022-09-28T03:44:24.342Z,7.53
2022-09-28T03:46:52.575Z,7.67
2022-09-28T03:49:21.478Z,8.20
2022-09-28T03:51:50.350Z,8.67
2022-09-28T03:54:18.437Z,8.10
2022-09-28T03:56:45.952Z,8.43
2022-09-28T03:59:13.510Z,8.63
2022-09-28T04:01:41.324Z,8.03
2022-09-28T04:04:11.955Z,8.87
2022-09-28T04:06:41.806Z,8.27
2022-09-28T04:09:11.443Z,8.43
2022-09-28T04:11:59.738Z,8.70
2022-09-28T04:14:27.693Z,8.50
2022-09-28T04:16:55.583Z,9.73
2022-09-28T04:19:25.190Z,9.80
2022-09-28T04:22:00.939Z,9.10
2022-09-28T04:24:28.558Z,9.90
2022-09-28T04:27:16.499Z,9.60
2022-09-28T04:29:44.080Z,9.50
2022-09-28T04:32:12.812Z,9.70
2022-09-28T04:34:44.167Z,8.83
2022-09-28T04:37:14.880Z,9.13
2022-09-28T04:39:46.278Z,8.07
2022-09-28T04:42:18.444Z,8.60
2022-09-28T04:44:46.905Z,9.20
2022-09-28T04:47:14.431Z,8.40
2022-09-28T04:50:08.841Z,8.23
2022-09-28T04:52:57.803Z,8.50
2022-09-28T04:55:25.763Z,8.57
2022-09-28T04:57:54.400Z,9.50
2022-09-28T05:00:22.179Z,8.57
2022-09-28T05:03:06.055Z,8.90
2022-09-28T05:06:14.428Z,8.47
2022-09-28T05:08:46.689Z,8.37
2022-09-28T05:11:14.999Z,8.43
2022-09-28T05:13:45.054Z,8.80
2022-09-28T05:16:16.695Z,8.60
2022-09-28T05:19:06.126Z,9.00
2022-09-28T05:21:33.839Z,8.97
2022-09-28T05:24:07.270Z,9.17
2022-09-28T05:26:36.519Z,9.43
2022-09-28T05:29:05.036Z,8.87
2022-09-28T05:31:51.584Z,7.43
2022-09-28T05:34:27.931Z,8.30
2022-09-28T05:36:55.871Z,8.23
2022-09-28T05:39:24.766Z,7.90
2022-09-28T05:41:52.288Z,7.73
2022-09-28T05:44:20.099Z,7.97
2022-09-28T05:46:48.794Z,7.80
2022-09-28T05:49:17.919Z,6.83
2022-09-28T05:51:45.535Z,6.97
2022-09-28T05:54:13.249Z,7.17
2022-09-28T05:56:45.971Z,7.50
2022-09-28T05:59:13.796Z,8.10
2022-09-28T06:01:42.289Z,7.83
2022-09-28T06:04:12.062Z,8.10
2022-09-28T06:06:42.127Z,7.47
2022-09-28T06:09:10.451Z,7.73
2022-09-28T06:11:51.252Z,6.87
2022-09-28T06:14:24.394Z,9.23
2022-09-28T06:16:52.171Z,7.40
2022-09-28T06:19:19.757Z,8.20
2022-09-28T06:22:06.109Z,7.90
2022-09-28T06:24:39.055Z,8.63
2022-09-28T06:27:08.128Z,7.87
2022-09-28T06:29:35.905Z,7.77
2022-09-28T06:32:03.753Z,7.90
2022-09-28T06:34:31.586Z,8.23
2022-09-28T06:36:59.727Z,9.13
2022-09-28T06:39:28.399Z,9.37
2022-09-28T06:41:57.375Z,8.90
2022-09-28T06:44:27.045Z,9.00
2022-09-28T06:47:18.003Z,9.10
2022-09-28T06:49:57.154Z,9.23
2022-09-28T06:52:28.112Z,8.83
2022-09-28T06:55:18.715Z,8.90
2022-09-28T06:58:00.205Z,8.50
2022-09-28T07:00:29.241Z,8.87
2022-09-28T07:02:56.779Z,8.23
2022-09-28T07:05:44.575Z,7.90
2022-09-28T07:08:33.283Z,7.10
2022-09-28T07:11:08.638Z,7.77
2022-09-28T07:13:50.749Z,10.33
2022-09-28T07:16:27.138Z,7.57
2022-09-28T07:18:57.915Z,8.53
2022-09-28T07:21:30.133Z,7.23
2022-09-28T07:24:01.980Z,7.10
2022-09-28T07:26:48.426Z,7.70
2022-09-28T07:29:34.498Z,9.47
2022-09-28T07:32:24.570Z,8.37
2022-09-28T07:34:59.052Z,8.00
2022-09-28T07:37:38.739Z,9.10
2022-09-28T07:40:24.828Z,7.93
2022-09-28T07:42:52.876Z,7.77
2022-09-28T07:45:24.041Z,7.63
2022-09-28T07:47:55.515Z,7.93
2022-09-28T07:50:34.823Z,8.00
2022-09-28T07:53:22.503Z,7.97
2022-09-28T07:56:05.023Z,7.80
2022-09-28T07:59:11.611Z,8.50
2022-09-28T08:02:20.245Z,7.93
2022-09-28T08:04:49.569Z,7.80
2022-09-28T08:07:23.514Z,8.70
2022-09-28T08:09:58.203Z,7.93
2022-09-28T08:12:28.757Z,7.90
2022-09-28T08:15:15.447Z,8.60
2022-09-28T08:17:56.119Z,8.07
2022-09-28T08:20:48.180Z,7.23
2022-09-28T08:23:20.254Z,7.80
2022-09-28T08:25:50.439Z,7.17
2022-09-28T08:28:18.880Z,7.80
2022-09-28T08:30:48.935Z,8.60
2022-09-28T08:33:40.061Z,7.90
2022-09-28T08:36:28.261Z,8.40
2022-09-28T08:39:02.314Z,8.10
2022-09-28T08:41:39.327Z,7.60
2022-09-28T08:44:39.275Z,8.50
2022-09-28T08:47:30.683Z,7.40
2022-09-28T08:50:27.941Z,7.83
2022-09-28T08:53:31.294Z,7.30
2022-09-28T08:56:15.958Z,6.90
2022-09-28T08:58:45.942Z,6.80
2022-09-28T09:01:16.598Z,6.27
2022-09-28T09:03:46.423Z,5.60
2022-09-28T09:06:43.008Z,6.30
2022-09-28T09:09:41.056Z,5.30
2022-09-28T09:12:11.555Z,5.27
2022-09-28T09:14:57.379Z,5.10
2022-09-28T09:17:30.315Z,5.17
2022-09-28T09:20:12.239Z,5.20
2022-09-28T09:23:07.164Z,5.67
2022-09-28T09:25:41.442Z,6.30
2022-09-28T09:28:43.610Z,6.00
2022-09-28T09:31:20.699Z,6.10
2022-09-28T09:34:10.157Z,4.70
2022-09-28T09:36:57.390Z,6.20
2022-09-28T09:39:49.109Z,3.90
2022-09-28T09:42:50.877Z,5.10
2022-09-28T09:45:46.307Z,3.73
2022-09-28T09:48:35.729Z,5.33
2022-09-28T09:51:06.674Z,7.70
2022-09-28T09:53:38.460Z,4.20
2022-09-28T09:56:11.978Z,3.20
2022-09-28T09:59:04.768Z,3.80
2022-09-28T10:01:38.903Z,3.60
2022-09-28T10:04:22.565Z,4.63
2022-09-28T10:06:52.410Z,3.63
2022-09-28T10:09:24.983Z,2.80
2022-09-28T10:11:54.026Z,2.50
2022-09-28T10:14:24.262Z,3.10
2022-09-28T10:17:10.812Z,2.77
2022-09-28T10:19:57.979Z,2.70
2022-09-28T10:22:44.776Z,2.83
2022-09-28T10:25:18.626Z,2.13
2022-09-28T10:27:49.201Z,2.40
2022-09-28T10:30:23.226Z,2.00
2022-09-28T10:32:52.398Z,1.70
2022-09-28T10:35:25.664Z,2.67
2022-09-28T10:38:05.672Z,2.23
2022-09-28T10:40:45.540Z,2.87
2022-09-28T10:43:21.490Z,1.43
2022-09-28T10:46:00.571Z,2.37
2022-09-28T10:48:28.764Z,2.07
2022-09-28T10:51:01.303Z,2.60
2022-09-28T10:53:28.953Z,2.50
2022-09-28T10:56:06.472Z,2.30
2022-09-28T10:58:37.315Z,2.50
2022-09-28T11:01:10.237Z,2.83
2022-09-28T11:03:42.140Z,2.93
2022-09-28T11:06:10.228Z,3.67
2022-09-28T11:08:42.705Z,3.77
2022-09-28T11:11:16.297Z,3.60
2022-09-28T11:13:48.679Z,4.63
2022-09-28T11:16:24.954Z,3.90
2022-09-28T11:18:52.888Z,3.73
2022-09-28T11:21:23.375Z,4.87
2022-09-28T11:24:07.363Z,4.00
2022-09-28T11:26:41.804Z,4.00
2022-09-28T11:29:24.011Z,3.27
2022-09-28T11:32:14.922Z,4.73
2022-09-28T11:37:59.436Z,4.43
2022-09-28T11:40:55.196Z,3.77
2022-09-28T11:43:32.568Z,3.80
2022-09-28T11:46:06.307Z,4.30
2022-09-28T11:48:40.194Z,3.40
2022-09-28T11:51:12.100Z,3.73
2022-09-28T11:53:41.380Z,3.97
2022-09-28T11:56:15.928Z,3.50
2022-09-28T11:58:45.727Z,3.70
2022-09-28T12:01:19.698Z,3.63
2022-09-28T12:04:11.722Z,3.30
2022-09-28T12:06:41.943Z,2.70
2022-09-28T12:09:13.965Z,2.40
2022-09-28T12:11:56.932Z,2.20
2022-09-28T12:14:41.591Z,2.07
2022-09-28T12:17:19.345Z,2.00
2022-09-28T12:19:50.316Z,2.10
2022-09-28T12:22:20.528Z,2.20
2022-09-28T12:24:49.884Z,2.07
2022-09-28T12:27:22.100Z,2.20
2022-09-28T12:29:53.528Z,1.50
2022-09-28T12:32:25.966Z,1.80
2022-09-28T12:34:55.022Z,2.23
2022-09-28T12:37:37.613Z,2.60
2022-09-28T12:40:26.312Z,1.80
2022-09-28T12:43:01.617Z,1.70
2022-09-28T12:45:53.198Z,1.70
2022-09-28T12:48:43.262Z,1.30
2022-09-28T12:51:17.843Z,2.67
2022-09-28T12:54:03.752Z,2.40
2022-09-28T12:56:35.714Z,1.77
2022-09-28T12:59:07.546Z,3.30
2022-09-28T13:01:44.181Z,2.53
2022-09-28T13:04:34.423Z,2.23
2022-09-28T13:07:06.056Z,1.83
2022-09-28T13:09:40.213Z,1.63
2022-09-28T13:12:25.820Z,1.90
2022-09-28T13:15:16.168Z,2.10
2022-09-28T13:17:49.756Z,1.90
2022-09-28T13:20:30.255Z,1.60
2022-09-28T13:23:06.064Z,3.40
2022-09-28T13:25:36.302Z,1.30
2022-09-28T13:28:04.779Z,2.20
2022-09-28T13:30:33.554Z,1.73
2022-09-28T13:33:03.770Z,1.90
2022-09-28T13:35:33.220Z,2.20
2022-09-28T13:38:20.071Z,1.70
2022-09-28T13:41:02.766Z,1.97
2022-09-28T13:43:35.206Z,1.97
2022-09-28T13:46:07.959Z,1.80
2022-09-28T13:48:42.720Z,2.83
2022-09-28T13:51:22.906Z,1.90
2022-09-28T13:54:02.329Z,1.67
2022-09-28T13:56:34.666Z,2.03
2022-09-28T13:59:05.394Z,1.60
2022-09-28T14:01:37.202Z,1.97
2022-09-28T14:04:17.691Z,2.17
2022-09-28T14:06:49.431Z,1.60
2022-09-28T14:09:26.993Z,2.10
2022-09-28T14:11:56.183Z,2.53
2022-09-28T14:14:29.518Z,4.20
2022-09-28T14:17:21.392Z,1.50
2022-09-28T14:19:51.499Z,1.50
2022-09-28T14:22:25.091Z,1.60
2022-09-28T14:25:00.802Z,1.73
2022-09-28T14:27:38.229Z,2.20
2022-09-28T14:30:08.939Z,2.00
2022-09-28T14:32:38.851Z,1.60
2022-09-28T14:35:07.518Z,1.70
2022-09-28T14:37:54.482Z,2.13
2022-09-28T14:40:43.753Z,3.10
2022-09-28T14:43:28.504Z,1.97
2022-09-28T14:46:23.157Z,1.80
2022-09-28T14:48:53.607Z,2.17
2022-09-28T14:51:39.996Z,1.87
2022-09-28T14:54:17.654Z,2.23
2022-09-28T14:56:46.876Z,2.10
2022-09-28T14:59:18.147Z,2.57
2022-09-28T15:01:47.975Z,1.80
2022-09-28T15:04:17.915Z,1.87
2022-09-28T15:06:46.382Z,2.27
2022-09-28T15:09:29.252Z,3.07
2022-09-28T15:12:01.340Z,2.83
2022-09-28T15:14:31.775Z,2.73
2022-09-28T15:17:03.512Z,1.90
2022-09-28T15:19:35.341Z,2.10
2022-09-28T15:22:03.168Z,3.00
2022-09-28T15:24:32.543Z,2.40
2022-09-28T15:27:00.255Z,3.33
2022-09-28T15:29:31.535Z,2.93
2022-09-28T15:31:59.299Z,2.90
2022-09-28T15:34:45.967Z,2.50
2022-09-28T15:37:15.950Z,3.93
2022-09-28T15:39:46.243Z,3.07
2022-09-28T15:42:13.860Z,2.57
2022-09-28T15:44:42.874Z,3.60
2022-09-28T15:47:15.088Z,3.03
2022-09-28T15:49:45.247Z,3.40
2022-09-28T15:52:26.003Z,3.27
2022-09-28T15:54:54.012Z,2.77
2022-09-28T15:57:30.160Z,3.70
2022-09-28T15:59:59.140Z,2.97
2022-09-28T16:02:27.181Z,3.87
2022-09-28T16:04:55.602Z,2.90
2022-09-28T16:07:40.934Z,3.63
2022-09-28T16:10:27.342Z,2.60
2022-09-28T16:12:58.826Z,5.60
2022-09-28T16:15:28.167Z,3.90
2022-09-28T16:17:56.811Z,3.10
2022-09-28T16:20:28.458Z,3.50
2022-09-28T16:22:56.893Z,3.40
2022-09-28T16:25:25.542Z,3.17
2022-09-28T16:27:54.220Z,4.10
2022-09-28T16:30:25.127Z,3.53
2022-09-28T16:32:54.672Z,3.50
2022-09-28T16:35:25.369Z,3.10
2022-09-28T16:37:58.331Z,4.77
2022-09-28T16:40:26.114Z,3.40
2022-09-28T16:42:54.879Z,2.70
2022-09-28T16:45:24.625Z,2.77
2022-09-28T16:47:52.925Z,3.70
2022-09-28T16:50:21.549Z,3.47
2022-09-28T16:53:08.002Z,2.97
2022-09-28T16:55:40.509Z,3.73
2022-09-28T16:58:09.170Z,4.00
2022-09-28T17:00:38.038Z,3.40
2022-09-28T17:03:12.743Z,4.00
2022-09-28T17:05:40.286Z,4.07
2022-09-28T17:08:07.971Z,4.30
2022-09-28T17:10:50.143Z,5.17
2022-09-28T17:13:31.122Z,4.80
2022-09-28T17:16:01.891Z,4.37
2022-09-28T17:18:31.809Z,4.90
2022-09-28T17:21:00.756Z,5.60
2022-09-28T17:23:28.290Z,5.43
2022-09-28T17:25:56.484Z,6.30
2022-09-28T17:28:25.595Z,5.70
2022-09-28T17:30:53.839Z,4.73
2022-09-28T17:33:22.785Z,5.07
2022-09-28T17:35:52.922Z,5.80
2022-09-28T17:38:20.447Z,5.70
2022-09-28T17:40:48.363Z,5.37
2022-09-28T17:43:15.986Z,6.40
2022-09-28T17:45:45.934Z,8.20
2022-09-28T17:48:15.666Z,6.27
2022-09-28T17:50:46.564Z,7.10
2022-09-28T17:53:14.930Z,6.50
2022-09-28T17:55:43.813Z,6.47
2022-09-28T17:58:18.449Z,7.40
2022-09-28T18:00:51.702Z,6.70
2022-09-28T18:03:20.722Z,5.80
2022-09-28T18:05:52.620Z,7.57
2022-09-28T18:08:21.294Z,7.63
2022-09-28T18:10:48.764Z,8.00
2022-09-28T18:13:16.560Z,6.60
2022-09-28T18:15:44.325Z,8.60
2022-09-28T18:18:12.871Z,7.60
2022-09-28T18:20:41.267Z,7.60
2022-09-28T18:23:11.110Z,9.10
2022-09-28T18:25:40.084Z,7.47
2022-09-28T18:28:07.544Z,10.10
2022-09-28T18:30:38.410Z,8.43
2022-09-28T18:33:06.127Z,10.43
2022-09-28T18:35:33.580Z,8.80
2022-09-28T18:38:01.807Z,8.77
2022-09-28T18:40:30.721Z,8.00
2022-09-28T18:42:58.843Z,7.60
2022-09-28T18:45:26.586Z,10.57
2022-09-28T18:47:54.202Z,8.93
2022-09-28T18:50:21.782Z,8.73
2022-09-28T18:52:49.423Z,8.57
2022-09-28T18:55:16.920Z,8.90
2022-09-28T18:57:46.758Z,9.13
2022-09-28T19:00:15.633Z,8.67
2022-09-28T19:02:43.343Z,7.70
2022-09-28T19:05:10.962Z,8.83
2022-09-28T19:07:38.522Z,8.37
2022-09-28T19:10:07.051Z,7.83
2022-09-28T19:12:34.736Z,7.67
2022-09-28T19:15:04.095Z,8.57
2022-09-28T19:17:33.537Z,8.27
2022-09-28T19:20:01.491Z,8.30
2022-09-28T19:22:30.615Z,7.87
2022-09-28T19:24:58.315Z,7.90
2022-09-28T19:27:25.841Z,8.80
2022-09-28T19:29:53.362Z,7.80
2022-09-28T19:32:22.199Z,8.30
2022-09-28T19:34:49.643Z,9.53
2022-09-28T19:37:17.697Z,8.40
2022-09-28T19:39:45.342Z,9.10
2022-09-28T19:42:12.851Z,8.27
2022-09-28T19:44:40.529Z,9.93
2022-09-28T19:47:09.822Z,11.80
2022-09-28T19:49:40.121Z,12.47
2022-09-28T19:52:13.472Z,13.10
2022-09-28T19:54:43.975Z,12.10
2022-09-28T19:57:12.082Z,10.40
2022-09-28T19:59:39.872Z,11.30
2022-09-28T20:02:08.595Z,11.80
2022-09-28T20:04:36.331Z,11.27
2022-09-28T20:07:05.638Z,11.70
2022-09-28T20:09:33.469Z,10.97
2022-09-28T20:12:01.221Z,17.33
2022-09-28T20:14:33.033Z,12.00
2022-09-28T20:17:04.433Z,11.40
2022-09-28T20:19:32.698Z,12.07
2022-09-28T20:22:02.830Z,13.90
2022-09-28T20:24:32.620Z,12.33
2022-09-28T20:27:01.103Z,12.97
2022-09-28T20:29:28.998Z,12.30
2022-09-28T20:31:57.713Z,11.67
2022-09-28T20:34:25.192Z,12.33
2022-09-28T20:36:55.133Z,12.30
2022-09-28T20:39:22.614Z,13.10
2022-09-28T20:41:51.653Z,12.13
2022-09-28T20:44:19.653Z,12.30
2022-09-28T20:46:50.064Z,14.57
2022-09-28T20:49:17.699Z,12.63
2022-09-28T20:51:47.886Z,11.87
2022-09-28T20:54:15.407Z,12.33
2022-09-28T20:56:42.867Z,11.07
2022-09-28T20:59:13.257Z,11.30
2022-09-28T21:01:41.569Z,11.80
2022-09-28T21:04:10.116Z,13.10
2022-09-28T21:06:38.707Z,12.17
2022-09-28T21:09:12.705Z,11.87
2022-09-28T21:11:41.559Z,11.30
2022-09-28T21:14:10.254Z,10.20
2022-09-28T21:16:42.112Z,10.50
2022-09-28T21:19:09.807Z,10.40
2022-09-28T21:21:38.204Z,11.90
2022-09-28T21:24:06.598Z,11.10
2022-09-28T21:26:35.520Z,10.67
2022-09-28T21:29:04.146Z,10.73
2022-09-28T21:31:33.452Z,11.00
2022-09-28T21:34:04.679Z,11.47
2022-09-28T21:36:32.179Z,12.40
2022-09-28T21:38:59.660Z,10.27
2022-09-28T21:41:28.741Z,11.10
2022-09-28T21:43:56.354Z,9.63
2022-09-28T21:46:24.659Z,13.40
2022-09-28T21:48:52.854Z,10.23
2022-09-28T21:51:21.712Z,8.53
2022-09-28T21:53:49.603Z,9.33
2022-09-28T21:56:17.754Z,10.70
2022-09-28T21:58:45.251Z,10.23
2022-09-28T22:01:15.487Z,9.50
2022-09-28T22:03:43.913Z,10.10
2022-09-28T22:06:11.795Z,10.03
2022-09-28T22:08:40.991Z,9.83
2022-09-28T22:11:09.706Z,9.43
2022-09-28T22:13:39.898Z,10.40
2022-09-28T22:16:08.102Z,9.70
2022-09-28T22:18:35.796Z,9.20
2022-09-28T22:21:04.054Z,8.50
2022-09-28T22:23:31.553Z,9.23
2022-09-28T22:26:01.530Z,9.03
2022-09-28T22:28:29.983Z,8.43
2022-09-28T22:30:58.059Z,8.03
2022-09-28T22:33:26.491Z,8.10
2022-09-28T22:35:54.877Z,7.73
2022-09-28T22:38:23.502Z,8.00
2022-09-28T22:40:52.109Z,8.13
2022-09-28T22:43:21.363Z,8.20
2022-09-28T22:45:49.058Z,7.90
2022-09-28T22:48:17.054Z,9.30
2022-09-28T22:50:53.355Z,9.10
2022-09-28T22:53:20.888Z,8.10
2022-09-28T22:55:48.402Z,9.40
2022-09-28T22:58:16.273Z,8.60
2022-09-28T23:00:45.673Z,9.03
2022-09-28T23:03:13.588Z,8.87
2022-09-28T23:05:41.396Z,9.10
2022-09-28T23:08:10.884Z,8.17
2022-09-28T23:10:39.301Z,9.33
2022-09-28T23:13:07.631Z,8.20
2022-09-28T23:15:35.447Z,8.60
2022-09-28T23:18:04.325Z,9.33
2022-09-28T23:20:32.182Z,8.83
2022-09-28T23:22:59.878Z,8.47
2022-09-28T23:25:29.586Z,9.30
2022-09-28T23:27:58.071Z,9.30
2022-09-28T23:30:26.517Z,8.93
2022-09-28T23:32:54.291Z,9.57
2022-09-28T23:35:23.817Z,9.00
2022-09-28T23:37:52.436Z,9.10
2022-09-28T23:40:21.008Z,8.80
2022-09-28T23:42:49.041Z,9.53
2022-09-28T23:45:17.202Z,9.03
2022-09-28T23:47:45.040Z,9.50
2022-09-28T23:50:12.843Z,9.50
2022-09-28T23:52:42.099Z,10.27
2022-09-28T23:55:10.366Z,10.60
2022-09-28T23:57:41.212Z,10.00
